Dunster, Canada
Current Conditions -  °F | °C
As of 9:00 PM on Saturday 25 Oct 2014 (Local Time) from CYQZ Reporting Station
Light Rain Light Rain  
Wind Chill: 29°   Ceiling: 1800
Heat Index: 34°   Visibility: 9mi
Dew Point: 34°   Wind: 6mph
Humidity: 100%   Direction: 350°N
Pressure: 29.42"   Gusts: NA
Location:  53.12°N, 119.83°W
Report Text: CYQZ 260400Z AUTO 35005KT 9SM -RA OVC018 01/01 A2942 RMK SLP984
Loading
Personal Weather Stations






























Interactive Weather Map
Tropical Storm Tracking
New forecast layout! Learn more

10-Day Weather Forecast

Advertisements
Track Severe Weather on mobile